Terminal Aerodrome Forecast
Issued by NWS

Home | Current Version | Previous Version | Text Only | Print | Product List | Glossary On
Versions: 1 2 3 4 5 6 7 8 9 10 11 12 13 14 15 16 17 18 19 20 21 22 23
000
FTUS43 KIND 021100
TAFLAF
TAF
KLAF 021125Z 0212/0312 00000KT P6SM SKC
     FM021600 08008KT P6SM SCT250
     FM030100 06003KT P6SM SKC
      AMD LTD TO CLD VIS AND WIND TIL 021300=

USA.gov is the U.S. government's official web portal to all federal, state and local government web resources and services.